RUNWAY INFORMATION
Runway Length Width Elevation Displaced
Threshold
Heading | Runway Length Width Elevation Displaced
Threshold
Heading
17L 12205 ft 148 ft 633 ft 0 ft 164 | 35R 12205 ft 148 ft 656 ft 0 ft 344
17R 12205 ft 148 ft 636 ft 0 ft 164 | 35L 12205 ft 148 ft 656 ft 0 ft 344

 AIRPORT FREQUENCIES
Type APP Name APP Frequency 121.3 MHZ
Type ATIS Name ATIS Frequency 126.4 MHZ
Type TWR Name TWR Frequency 118.5 MHZ

 AIRPORT NEAR NAVIGATION AIDS
Type VOR-DME Name Casablanca Frequency 114000 KHZ

 METAR AND TAF INFORMATION
METAR FOR GMMN
ADDS - METARS form results

(0939 UTC 23 January 2022)
Data provider http://aviationweather.gov/metar/data/
 
METAR text: GMMN 230930Z 23009KT CAVOK 16/09 Q1020 NOSIG
Conditions at: GMMN (NOUASSEUR/CASABL, MA) observed 0930 UTC 23 January 2022
Temperature: 16.0°C (61°F)
Dewpoint: 9.0°C (48°F) [RH = 63%]
Pressure (altimeter): 30.12 inches Hg (1020.0 mb)
Winds: from the SW (230 degrees) at 10 MPH (9 knots; 4.6 m/s)
Visibility: 6 or more miles (10+ km)
Ceiling: ceiling and visibility are OK
Clouds: unknown
Weather: no significant weather observed at this time

METAR text: GMMN 230900Z 23006KT CAVOK 15/05 Q1020 NOSIG
Conditions at: GMMN (NOUASSEUR/CASABL, MA) observed 0900 UTC 23 January 2022
Temperature: 15.0°C (59°F)
Dewpoint: 5.0°C (41°F) [RH = 51%]
Pressure (altimeter): 30.12 inches Hg (1020.0 mb)
Winds: from the SW (230 degrees) at 7 MPH (6 knots; 3.1 m/s)
Visibility: 6 or more miles (10+ km)
Ceiling: ceiling and visibility are OK
Clouds: unknown
Weather: no significant weather observed at this time

Forecast for: COR
Text: TAF COR GMMN 230500Z 2306/2412 20008KT CAVOK
Forecast period: 0600 to 1300 UTC 23 January 2022
Forecast type: FROM: standard forecast or significant change
Winds: from the SSW (200 degrees) at 9 MPH (8 knots; 4.1 m/s)
Visibility: 6 or more miles (10+ km)
Ceiling: unknown
Clouds: missing
Weather: NSW  (no significant weather)
Text: BECMG 2313/2315 28014KT
Forecast period: 1300 to 2000 UTC 23 January 2022
Forecast type: BECOMING: Conditions expected to become as follows by 1500 UTC 23 January 2022
Winds: from the W (280 degrees) at 16 MPH (14 knots; 7.2 m/s)
Visibility: 6 or more miles (10+ km)
Ceiling: unknown
Clouds: missing
Weather: NSW  (no significant weather)
Text: BECMG 2320/2323 18010KT
Forecast period: 2000 UTC 23 January 2022 to 1200 UTC 24 January 2022
Forecast type: BECOMING: Conditions expected to become as follows by 2300 UTC 23 January 2022
Winds: from the S (180 degrees) at 12 MPH (10 knots; 5.1 m/s)
Visibility: 6 or more miles (10+ km)
Ceiling: unknown
Clouds: missing
Weather: NSW  (no significant weather)



© 2013 - 2022, FlightSimLog.org - Powered by Virtual Airlines Manager